sensor_id;sensor_type;location;lat;lon;timestamp;pressure;altitude;pressure_sealevel;temperature;humidity
10832;BME280;5469;48.574;8.768;2023-02-19T00:00:11;95396.28;;;10.43;nan
10832;BME280;5469;48.574;8.768;2023-02-19T00:02:48;95388.91;;;10.56;nan
10832;BME280;5469;48.574;8.768;2023-02-19T00:05:26;95399.81;;;10.22;nan
10832;BME280;5469;48.574;8.768;2023-02-19T00:08:02;95391.84;;;10.17;nan
10832;BME280;5469;48.574;8.768;2023-02-19T00:10:37;95390.38;;;10.31;nan
10832;BME280;5469;48.574;8.768;2023-02-19T00:13:12;95388.53;;;10.32;nan
10832;BME280;5469;48.574;8.768;2023-02-19T00:15:47;95382.72;;;10.35;nan
10832;BME280;5469;48.574;8.768;2023-02-19T00:18:22;95386.53;;;10.17;nan
10832;BME280;5469;48.574;8.768;2023-02-19T00:20:59;95386.78;;;10.10;nan
10832;BME280;5469;48.574;8.768;2023-02-19T00:23:35;95383.59;;;10.08;nan
10832;BME280;5469;48.574;8.768;2023-02-19T00:26:11;95384.16;;;10.15;nan
10832;BME280;5469;48.574;8.768;2023-02-19T00:28:47;95374.88;;;10.13;nan
10832;BME280;5469;48.574;8.768;2023-02-19T00:31:24;95378.00;;;10.04;nan
10832;BME280;5469;48.574;8.768;2023-02-19T00:34:02;95369.81;;;10.11;nan
10832;BME280;5469;48.574;8.768;2023-02-19T00:36:40;95366.16;;;10.12;nan
10832;BME280;5469;48.574;8.768;2023-02-19T00:39:17;95365.34;;;10.17;nan
10832;BME280;5469;48.574;8.768;2023-02-19T00:41:53;95370.63;;;10.06;nan
10832;BME280;5469;48.574;8.768;2023-02-19T00:44:28;95367.41;;;10.04;nan
10832;BME280;5469;48.574;8.768;2023-02-19T00:47:03;95374.38;;;10.16;nan
10832;BME280;5469;48.574;8.768;2023-02-19T00:49:38;95375.34;;;9.99;nan
10832;BME280;5469;48.574;8.768;2023-02-19T00:52:15;95376.41;;;10.03;nan
10832;BME280;5469;48.574;8.768;2023-02-19T00:54:50;95370.66;;;10.17;nan
10832;BME280;5469;48.574;8.768;2023-02-19T00:57:25;95383.84;;;10.06;nan
10832;BME280;5469;48.574;8.768;2023-02-19T01:00:00;95376.44;;;10.09;nan
10832;BME280;5469;48.574;8.768;2023-02-19T01:02:36;95373.72;;;9.98;nan
10832;BME280;5469;48.574;8.768;2023-02-19T01:05:11;95372.69;;;9.99;nan
10832;BME280;5469;48.574;8.768;2023-02-19T01:07:49;95373.50;;;10.05;nan
10832;BME280;5469;48.574;8.768;2023-02-19T01:10:25;95377.88;;;9.84;nan
10832;BME280;5469;48.574;8.768;2023-02-19T01:13:00;95370.81;;;10.00;nan
10832;BME280;5469;48.574;8.768;2023-02-19T01:15:35;95356.31;;;10.07;nan
10832;BME280;5469;48.574;8.768;2023-02-19T01:18:11;95358.31;;;9.90;nan
10832;BME280;5469;48.574;8.768;2023-02-19T01:20:46;95350.81;;;9.77;nan
10832;BME280;5469;48.574;8.768;2023-02-19T01:23:23;95359.09;;;9.91;nan
10832;BME280;5469;48.574;8.768;2023-02-19T01:25:58;95368.41;;;9.98;nan
10832;BME280;5469;48.574;8.768;2023-02-19T01:28:33;95377.88;;;9.84;nan
10832;BME280;5469;48.574;8.768;2023-02-19T01:31:12;95373.88;;;9.81;nan
10832;BME280;5469;48.574;8.768;2023-02-19T01:33:51;95370.03;;;9.99;nan
10832;BME280;5469;48.574;8.768;2023-02-19T01:36:28;95360.44;;;9.93;nan
10832;BME280;5469;48.574;8.768;2023-02-19T01:39:05;95351.78;;;9.66;nan
10832;BME280;5469;48.574;8.768;2023-02-19T01:41:43;95353.41;;;9.72;nan
10832;BME280;5469;48.574;8.768;2023-02-19T01:47:49;95340.38;;;9.60;nan
10832;BME280;5469;48.574;8.768;2023-02-19T01:50:30;95330.84;;;9.64;nan
10832;BME280;5469;48.574;8.768;2023-02-19T01:53:10;95338.47;;;9.55;nan
10832;BME280;5469;48.574;8.768;2023-02-19T01:55:49;95338.31;;;9.72;nan
10832;BME280;5469;48.574;8.768;2023-02-19T01:58:27;95334.72;;;9.51;nan
10832;BME280;5469;48.574;8.768;2023-02-19T02:01:05;95339.34;;;9.66;nan
10832;BME280;5469;48.574;8.768;2023-02-19T02:03:42;95338.91;;;9.42;nan
10832;BME280;5469;48.574;8.768;2023-02-19T02:06:22;95331.88;;;9.58;nan
10832;BME280;5469;48.574;8.768;2023-02-19T02:08:58;95348.44;;;9.43;nan
10832;BME280;5469;48.574;8.768;2023-02-19T02:11:53;95345.91;;;9.58;nan
10832;BME280;5469;48.574;8.768;2023-02-19T02:14:30;95342.34;;;9.80;nan
10832;BME280;5469;48.574;8.768;2023-02-19T02:17:14;95345.13;;;10.00;nan
10832;BME280;5469;48.574;8.768;2023-02-19T02:20:05;95359.84;;;9.49;nan
10832;BME280;5469;48.574;8.768;2023-02-19T02:22:51;95349.22;;;9.76;nan
10832;BME280;5469;48.574;8.768;2023-02-19T02:25:54;95344.66;;;9.66;nan
10832;BME280;5469;48.574;8.768;2023-02-19T02:28:51;95341.00;;;9.40;nan
10832;BME280;5469;48.574;8.768;2023-02-19T02:31:37;95346.28;;;9.40;nan
10832;BME280;5469;48.574;8.768;2023-02-19T02:34:18;95334.72;;;9.51;nan
10832;BME280;5469;48.574;8.768;2023-02-19T02:36:56;95321.06;;;9.65;nan
10832;BME280;5469;48.574;8.768;2023-02-19T02:39:34;95323.38;;;9.56;nan
10832;BME280;5469;48.574;8.768;2023-02-19T02:42:10;95326.75;;;9.46;nan
10832;BME280;5469;48.574;8.768;2023-02-19T02:45:22;95313.47;;;9.41;nan
10832;BME280;5469;48.574;8.768;2023-02-19T02:48:20;95322.16;;;9.69;nan
10832;BME280;5469;48.574;8.768;2023-02-19T02:51:01;95310.13;;;9.51;nan
10832;BME280;5469;48.574;8.768;2023-02-19T02:53:43;95308.91;;;9.63;nan
10832;BME280;5469;48.574;8.768;2023-02-19T02:56:40;95297.19;;;9.22;nan
10832;BME280;5469;48.574;8.768;2023-02-19T02:59:20;95300.75;;;9.38;nan
10832;BME280;5469;48.574;8.768;2023-02-19T03:01:58;95292.94;;;9.53;nan
10832;BME280;5469;48.574;8.768;2023-02-19T03:04:53;95290.81;;;9.50;nan
10832;BME280;5469;48.574;8.768;2023-02-19T03:07:51;95297.31;;;9.37;nan
10832;BME280;5469;48.574;8.768;2023-02-19T03:10:33;95290.09;;;9.28;nan
10832;BME280;5469;48.574;8.768;2023-02-19T03:13:14;95290.75;;;9.13;nan
10832;BME280;5469;48.574;8.768;2023-02-19T03:16:13;95292.88;;;9.11;nan
10832;BME280;5469;48.574;8.768;2023-02-19T03:19:09;95285.69;;;9.38;nan
10832;BME280;5469;48.574;8.768;2023-02-19T03:22:00;95280.53;;;9.22;nan
10832;BME280;5469;48.574;8.768;2023-02-19T03:24:48;95287.97;;;9.25;nan
10832;BME280;5469;48.574;8.768;2023-02-19T03:27:44;95293.22;;;9.19;nan
10832;BME280;5469;48.574;8.768;2023-02-19T03:30:24;95293.38;;;9.40;nan
10832;BME280;5469;48.574;8.768;2023-02-19T03:33:03;95306.47;;;9.25;nan
10832;BME280;5469;48.574;8.768;2023-02-19T03:35:44;95304.19;;;9.71;nan
10832;BME280;5469;48.574;8.768;2023-02-19T03:38:23;95293.81;;;9.27;nan
10832;BME280;5469;48.574;8.768;2023-02-19T03:41:05;95298.72;;;9.18;nan
10832;BME280;5469;48.574;8.768;2023-02-19T03:43:44;95289.53;;;9.58;nan
10832;BME280;5469;48.574;8.768;2023-02-19T03:46:27;95287.22;;;9.29;nan
10832;BME280;5469;48.574;8.768;2023-02-19T03:49:11;95290.50;;;9.47;nan
10832;BME280;5469;48.574;8.768;2023-02-19T03:51:52;95297.47;;;9.26;nan
10832;BME280;5469;48.574;8.768;2023-02-19T03:54:34;95294.59;;;9.00;nan
10832;BME280;5469;48.574;8.768;2023-02-19T03:57:16;95299.50;;;9.13;nan
10832;BME280;5469;48.574;8.768;2023-02-19T03:59:58;95301.19;;;9.25;nan
10832;BME280;5469;48.574;8.768;2023-02-19T04:02:40;95301.00;;;9.04;nan
10832;BME280;5469;48.574;8.768;2023-02-19T04:05:17;95296.31;;;9.11;nan
10832;BME280;5469;48.574;8.768;2023-02-19T04:07:59;95299.81;;;8.90;nan
10832;BME280;5469;48.574;8.768;2023-02-19T04:10:41;95303.09;;;9.02;nan
10832;BME280;5469;48.574;8.768;2023-02-19T04:13:21;95298.41;;;9.09;nan
10832;BME280;5469;48.574;8.768;2023-02-19T04:16:02;95303.13;;;9.07;nan
10832;BME280;5469;48.574;8.768;2023-02-19T04:18:42;95306.84;;;9.06;nan
10832;BME280;5469;48.574;8.768;2023-02-19T04:21:21;95312.78;;;9.18;nan
10832;BME280;5469;48.574;8.768;2023-02-19T04:23:59;95310.47;;;9.00;nan
10832;BME280;5469;48.574;8.768;2023-02-19T04:26:37;95317.38;;;9.01;nan
10832;BME280;5469;48.574;8.768;2023-02-19T04:29:13;95310.41;;;8.90;nan
10832;BME280;5469;48.574;8.768;2023-02-19T04:31:49;95324.13;;;8.92;nan
10832;BME280;5469;48.574;8.768;2023-02-19T04:34:24;95316.97;;;8.87;nan
10832;BME280;5469;48.574;8.768;2023-02-19T04:36:59;95333.75;;;8.98;nan
10832;BME280;5469;48.574;8.768;2023-02-19T04:39:34;95336.16;;;9.05;nan
10832;BME280;5469;48.574;8.768;2023-02-19T04:42:12;95322.38;;;8.98;nan
10832;BME280;5469;48.574;8.768;2023-02-19T04:44:47;95330.03;;;8.99;nan
10832;BME280;5469;48.574;8.768;2023-02-19T04:47:22;95327.34;;;8.94;nan
10832;BME280;5469;48.574;8.768;2023-02-19T04:49:56;95331.50;;;8.85;nan
10832;BME280;5469;48.574;8.768;2023-02-19T04:52:31;95348.75;;;8.92;nan
10832;BME280;5469;48.574;8.768;2023-02-19T04:55:09;95342.97;;;8.73;nan
10832;BME280;5469;48.574;8.768;2023-02-19T04:57:45;95344.47;;;8.64;nan
10832;BME280;5469;48.574;8.768;2023-02-19T05:00:21;95327.13;;;8.73;nan
10832;BME280;5469;48.574;8.768;2023-02-19T05:02:56;95328.75;;;8.74;nan
10832;BME280;5469;48.574;8.768;2023-02-19T05:05:31;95336.09;;;8.72;nan
10832;BME280;5469;48.574;8.768;2023-02-19T05:08:06;95327.13;;;8.73;nan
10832;BME280;5469;48.574;8.768;2023-02-19T05:10:41;95336.59;;;8.69;nan
10832;BME280;5469;48.574;8.768;2023-02-19T05:13:18;95337.69;;;8.73;nan
10832;BME280;5469;48.574;8.768;2023-02-19T05:15:58;95340.38;;;8.35;nan
10832;BME280;5469;48.574;8.768;2023-02-19T05:18:34;95338.00;;;8.77;nan
10832;BME280;5469;48.574;8.768;2023-02-19T05:21:11;95332.94;;;8.48;nan
10832;BME280;5469;48.574;8.768;2023-02-19T05:23:46;95338.28;;;8.53;nan
10832;BME280;5469;48.574;8.768;2023-02-19T05:26:23;95351.56;;;8.59;nan
10832;BME280;5469;48.574;8.768;2023-02-19T05:29:01;95356.25;;;8.79;nan
10832;BME280;5469;48.574;8.768;2023-02-19T05:31:36;95359.50;;;8.86;nan
10832;BME280;5469;48.574;8.768;2023-02-19T05:34:11;95361.34;;;8.85;nan
10832;BME280;5469;48.574;8.768;2023-02-19T05:36:46;95358.03;;;8.73;nan
10832;BME280;5469;48.574;8.768;2023-02-19T05:39:21;95354.50;;;8.62;nan
10832;BME280;5469;48.574;8.768;2023-02-19T05:41:58;95355.75;;;8.82;nan
10832;BME280;5469;48.574;8.768;2023-02-19T05:44:35;95359.84;;;8.67;nan
10832;BME280;5469;48.574;8.768;2023-02-19T05:47:11;95351.47;;;8.75;nan
10832;BME280;5469;48.574;8.768;2023-02-19T05:49:46;95358.59;;;8.53;nan
10832;BME280;5469;48.574;8.768;2023-02-19T05:52:21;95363.69;;;8.82;nan
10832;BME280;5469;48.574;8.768;2023-02-19T05:54:55;95360.34;;;8.91;nan
10832;BME280;5469;48.574;8.768;2023-02-19T05:57:30;95359.84;;;8.67;nan
10832;BME280;5469;48.574;8.768;2023-02-19T06:00:07;95373.47;;;8.59;nan
10832;BME280;5469;48.574;8.768;2023-02-19T06:02:43;95369.41;;;8.73;nan
10832;BME280;5469;48.574;8.768;2023-02-19T06:05:18;95366.81;;;8.79;nan
10832;BME280;5469;48.574;8.768;2023-02-19T06:07:53;95371.31;;;8.78;nan
10832;BME280;5469;48.574;8.768;2023-02-19T06:10:28;95371.72;;;8.92;nan
10832;BME280;5469;48.574;8.768;2023-02-19T06:13:03;95381.16;;;8.61;nan
10832;BME280;5469;48.574;8.768;2023-02-19T06:15:39;95379.66;;;8.92;nan
10832;BME280;5469;48.574;8.768;2023-02-19T06:18:15;95385.13;;;8.63;nan
10832;BME280;5469;48.574;8.768;2023-02-19T06:21:01;95398.41;;;8.68;nan
10832;BME280;5469;48.574;8.768;2023-02-19T06:23:37;95406.78;;;8.60;nan
10832;BME280;5469;48.574;8.768;2023-02-19T06:26:13;95407.28;;;8.57;nan
10832;BME280;5469;48.574;8.768;2023-02-19T06:28:52;95399.16;;;8.86;nan
10832;BME280;5469;48.574;8.768;2023-02-19T06:31:29;95401.13;;;8.73;nan
10832;BME280;5469;48.574;8.768;2023-02-19T06:34:04;95401.91;;;8.74;nan
10832;BME280;5469;48.574;8.768;2023-02-19T06:36:39;95415.75;;;8.59;nan
10832;BME280;5469;48.574;8.768;2023-02-19T06:39:15;95417.06;;;8.40;nan
10832;BME280;5469;48.574;8.768;2023-02-19T06:41:50;95418.09;;;8.78;nan
10832;BME280;5469;48.574;8.768;2023-02-19T06:44:25;95425.84;;;8.62;nan
10832;BME280;5469;48.574;8.768;2023-02-19T06:47:02;95417.22;;;8.50;nan
10832;BME280;5469;48.574;8.768;2023-02-19T06:49:37;95420.34;;;8.47;nan
10832;BME280;5469;48.574;8.768;2023-02-19T06:52:12;95429.78;;;8.43;nan
10832;BME280;5469;48.574;8.768;2023-02-19T06:54:47;95426.00;;;8.39;nan
10832;BME280;5469;48.574;8.768;2023-02-19T06:57:22;95429.63;;;8.32;nan
10832;BME280;5469;48.574;8.768;2023-02-19T06:59:57;95439.00;;;8.23;nan
10832;BME280;5469;48.574;8.768;2023-02-19T07:02:33;95437.47;;;8.44;nan
10832;BME280;5469;48.574;8.768;2023-02-19T07:05:09;95448.09;;;8.32;nan
10832;BME280;5469;48.574;8.768;2023-02-19T07:07:46;95445.38;;;8.27;nan
10832;BME280;5469;48.574;8.768;2023-02-19T07:10:21;95439.06;;;8.45;nan
10832;BME280;5469;48.574;8.768;2023-02-19T07:12:56;95450.19;;;8.47;nan
10832;BME280;5469;48.574;8.768;2023-02-19T07:15:31;95468.59;;;8.59;nan
10832;BME280;5469;48.574;8.768;2023-02-19T07:18:07;95470.19;;;8.60;nan
10832;BME280;5469;48.574;8.768;2023-02-19T07:20:43;95475.81;;;8.47;nan
10832;BME280;5469;48.574;8.768;2023-02-19T07:23:18;95485.91;;;8.50;nan
10832;BME280;5469;48.574;8.768;2023-02-19T07:25:53;95480.19;;;8.58;nan
10832;BME280;5469;48.574;8.768;2023-02-19T07:28:29;95491.47;;;8.70;nan
10832;BME280;5469;48.574;8.768;2023-02-19T07:31:05;95498.09;;;8.73;nan
10832;BME280;5469;48.574;8.768;2023-02-19T07:33:43;95499.75;;;8.57;nan
10832;BME280;5469;48.574;8.768;2023-02-19T07:36:20;95496.97;;;8.69;nan
10832;BME280;5469;48.574;8.768;2023-02-19T07:38:58;95508.75;;;8.61;nan
10832;BME280;5469;48.574;8.768;2023-02-19T07:41:33;95498.69;;;8.58;nan
10832;BME280;5469;48.574;8.768;2023-02-19T07:44:08;95507.41;;;8.75;nan
10832;BME280;5469;48.574;8.768;2023-02-19T07:46:46;95511.47;;;8.66;nan
10832;BME280;5469;48.574;8.768;2023-02-19T07:49:22;95508.91;;;8.71;nan
10832;BME280;5469;48.574;8.768;2023-02-19T07:51:57;95517.25;;;8.63;nan
10832;BME280;5469;48.574;8.768;2023-02-19T07:54:32;95526.88;;;8.69;nan
10832;BME280;5469;48.574;8.768;2023-02-19T07:57:08;95533.59;;;8.60;nan
10832;BME280;5469;48.574;8.768;2023-02-19T07:59:43;95536.31;;;8.65;nan
10832;BME280;5469;48.574;8.768;2023-02-19T08:02:19;95543.53;;;8.53;nan
10832;BME280;5469;48.574;8.768;2023-02-19T08:05:13;95551.84;;;8.79;nan
10832;BME280;5469;48.574;8.768;2023-02-19T08:07:49;95555.88;;;8.64;nan
10832;BME280;5469;48.574;8.768;2023-02-19T08:10:25;95551.53;;;8.75;nan
10832;BME280;5469;48.574;8.768;2023-02-19T08:13:19;95572.44;;;8.43;nan
10832;BME280;5469;48.574;8.768;2023-02-19T08:16:08;95567.22;;;8.48;nan
10832;BME280;5469;48.574;8.768;2023-02-19T08:18:43;95572.81;;;8.68;nan
10832;BME280;5469;48.574;8.768;2023-02-19T08:21:19;95574.75;;;8.73;nan
10832;BME280;5469;48.574;8.768;2023-02-19T08:23:57;95572.06;;;8.51;nan
10832;BME280;5469;48.574;8.768;2023-02-19T08:26:33;95573.66;;;8.52;nan
10832;BME280;5469;48.574;8.768;2023-02-19T08:29:08;95584.69;;;8.66;nan
10832;BME280;5469;48.574;8.768;2023-02-19T08:31:43;95572.81;;;8.68;nan
10832;BME280;5469;48.574;8.768;2023-02-19T08:34:18;95585.56;;;8.71;nan
10832;BME280;5469;48.574;8.768;2023-02-19T08:36:56;95581.88;;;8.72;nan
10832;BME280;5469;48.574;8.768;2023-02-19T08:39:31;95588.53;;;8.58;nan
10832;BME280;5469;48.574;8.768;2023-02-19T08:42:08;95573.97;;;8.72;nan
10832;BME280;5469;48.574;8.768;2023-02-19T08:44:43;95577.16;;;8.74;nan
10832;BME280;5469;48.574;8.768;2023-02-19T08:47:18;95575.63;;;8.79;nan
10832;BME280;5469;48.574;8.768;2023-02-19T08:49:53;95570.56;;;8.94;nan
10832;BME280;5469;48.574;8.768;2023-02-19T08:52:35;95581.47;;;8.81;nan
10832;BME280;5469;48.574;8.768;2023-02-19T08:55:13;95581.97;;;8.78;nan
10832;BME280;5469;48.574;8.768;2023-02-19T08:57:48;95593.31;;;8.61;nan
10832;BME280;5469;48.574;8.768;2023-02-19T09:00:23;95597.41;;;8.69;nan
10832;BME280;5469;48.574;8.768;2023-02-19T09:02:59;95599.19;;;8.63;nan
10832;BME280;5469;48.574;8.768;2023-02-19T09:05:34;95604.28;;;8.53;nan
10832;BME280;5469;48.574;8.768;2023-02-19T09:08:11;95621.69;;;8.66;nan
10832;BME280;5469;48.574;8.768;2023-02-19T09:10:49;95616.41;;;8.49;nan
10832;BME280;5469;48.574;8.768;2023-02-19T09:13:30;95620.00;;;8.77;nan
10832;BME280;5469;48.574;8.768;2023-02-19T09:16:06;95620.06;;;8.82;nan
10832;BME280;5469;48.574;8.768;2023-02-19T09:18:41;95602.47;;;8.70;nan
10832;BME280;5469;48.574;8.768;2023-02-19T09:21:18;95604.31;;;8.70;nan
10832;BME280;5469;48.574;8.768;2023-02-19T09:23:56;95608.06;;;8.91;nan
10832;BME280;5469;48.574;8.768;2023-02-19T09:26:30;95605.50;;;8.79;nan
10832;BME280;5469;48.574;8.768;2023-02-19T09:29:05;95604.28;;;8.87;nan
10832;BME280;5469;48.574;8.768;2023-02-19T09:31:40;95615.56;;;8.99;nan
10832;BME280;5469;48.574;8.768;2023-02-19T09:34:16;95615.44;;;8.89;nan
10832;BME280;5469;48.574;8.768;2023-02-19T09:36:53;95624.06;;;8.84;nan
10832;BME280;5469;48.574;8.768;2023-02-19T09:39:29;95613.53;;;8.67;nan
10832;BME280;5469;48.574;8.768;2023-02-19T09:42:10;95618.41;;;8.75;nan
10832;BME280;5469;48.574;8.768;2023-02-19T09:44:50;95628.41;;;8.90;nan
10832;BME280;5469;48.574;8.768;2023-02-19T09:47:29;95644.59;;;8.94;nan
10832;BME280;5469;48.574;8.768;2023-02-19T09:50:08;95644.84;;;8.75;nan
10832;BME280;5469;48.574;8.768;2023-02-19T09:52:46;95652.94;;;8.86;nan
10832;BME280;5469;48.574;8.768;2023-02-19T09:55:31;95641.69;;;8.79;nan
10832;BME280;5469;48.574;8.768;2023-02-19T09:58:19;95653.91;;;8.80;nan
10832;BME280;5469;48.574;8.768;2023-02-19T10:00:59;95656.63;;;8.85;nan
10832;BME280;5469;48.574;8.768;2023-02-19T10:03:37;95668.44;;;8.65;nan
10832;BME280;5469;48.574;8.768;2023-02-19T10:06:17;95675.00;;;8.63;nan
10832;BME280;5469;48.574;8.768;2023-02-19T10:08:59;95672.94;;;8.82;nan
10832;BME280;5469;48.574;8.768;2023-02-19T10:11:40;95686.88;;;8.94;nan
10832;BME280;5469;48.574;8.768;2023-02-19T10:14:18;95683.22;;;8.95;nan
10832;BME280;5469;48.574;8.768;2023-02-19T10:16:59;95683.59;;;9.21;nan
10832;BME280;5469;48.574;8.768;2023-02-19T10:19:36;95686.31;;;9.65;nan
10832;BME280;5469;48.574;8.768;2023-02-19T10:22:12;95687.66;;;9.45;nan
10832;BME280;5469;48.574;8.768;2023-02-19T10:24:51;95682.31;;;9.62;nan
10832;BME280;5469;48.574;8.768;2023-02-19T10:27:30;95706.69;;;9.08;nan
10832;BME280;5469;48.574;8.768;2023-02-19T10:30:08;95686.38;;;9.31;nan
10832;BME280;5469;48.574;8.768;2023-02-19T10:33:03;95675.19;;;9.24;nan
10832;BME280;5469;48.574;8.768;2023-02-19T10:35:49;95669.75;;;9.13;nan
10832;BME280;5469;48.574;8.768;2023-02-19T10:38:28;95689.44;;;9.23;nan
10832;BME280;5469;48.574;8.768;2023-02-19T10:41:07;95677.75;;;9.18;nan
10832;BME280;5469;48.574;8.768;2023-02-19T10:43:54;95663.06;;;9.28;nan
10832;BME280;5469;48.574;8.768;2023-02-19T10:46:33;95671.19;;;9.82;nan
10832;BME280;5469;48.574;8.768;2023-02-19T10:49:21;95672.97;;;9.98;nan
10832;BME280;5469;48.574;8.768;2023-02-19T10:52:03;95674.53;;;10.43;nan
10832;BME280;5469;48.574;8.768;2023-02-19T10:55:14;95690.78;;;9.81;nan
10832;BME280;5469;48.574;8.768;2023-02-19T10:57:50;95686.47;;;9.97;nan
10832;BME280;5469;48.574;8.768;2023-02-19T11:00:28;95698.41;;;9.99;nan
10832;BME280;5469;48.574;8.768;2023-02-19T11:03:17;95693.34;;;9.76;nan
10832;BME280;5469;48.574;8.768;2023-02-19T11:06:01;95697.28;;;9.95;nan
10832;BME280;5469;48.574;8.768;2023-02-19T11:08:45;95706.59;;;9.98;nan
10832;BME280;5469;48.574;8.768;2023-02-19T11:11:29;95705.22;;;9.95;nan
10832;BME280;5469;48.574;8.768;2023-02-19T11:14:12;95692.38;;;9.82;nan
10832;BME280;5469;48.574;8.768;2023-02-19T11:16:53;95686.91;;;9.89;nan
10832;BME280;5469;48.574;8.768;2023-02-19T11:19:33;95693.91;;;9.39;nan
10832;BME280;5469;48.574;8.768;2023-02-19T11:22:26;95700.31;;;9.82;nan
10832;BME280;5469;48.574;8.768;2023-02-19T11:25:06;95689.59;;;9.94;nan
10832;BME280;5469;48.574;8.768;2023-02-19T11:27:56;95681.22;;;10.02;nan
10832;BME280;5469;48.574;8.768;2023-02-19T11:30:40;95683.84;;;9.80;nan
10832;BME280;5469;48.574;8.768;2023-02-19T11:33:27;95686.44;;;9.75;nan
10832;BME280;5469;48.574;8.768;2023-02-19T11:39:24;95667.84;;;9.70;nan
10832;BME280;5469;48.574;8.768;2023-02-19T11:42:11;95677.47;;;9.76;nan
10832;BME280;5469;48.574;8.768;2023-02-19T11:44:56;95681.72;;;9.77;nan
10832;BME280;5469;48.574;8.768;2023-02-19T11:50:59;95692.53;;;9.75;nan
10832;BME280;5469;48.574;8.768;2023-02-19T11:53:43;95676.63;;;9.53;nan
10832;BME280;5469;48.574;8.768;2023-02-19T11:56:22;95689.09;;;9.75;nan
10832;BME280;5469;48.574;8.768;2023-02-19T11:59:06;95685.34;;;9.71;nan
10832;BME280;5469;48.574;8.768;2023-02-19T12:05:16;95694.94;;;9.55;nan
10832;BME280;5469;48.574;8.768;2023-02-19T12:11:10;95694.66;;;9.73;nan
10832;BME280;5469;48.574;8.768;2023-02-19T12:14:03;95699.97;;;9.56;nan
10832;BME280;5469;48.574;8.768;2023-02-19T12:16:49;95707.34;;;9.54;nan
10832;BME280;5469;48.574;8.768;2023-02-19T12:19:36;95698.38;;;9.55;nan
10832;BME280;5469;48.574;8.768;2023-02-19T12:22:25;95706.91;;;9.40;nan
10832;BME280;5469;48.574;8.768;2023-02-19T12:25:28;95718.94;;;9.14;nan
10832;BME280;5469;48.574;8.768;2023-02-19T12:28:30;95701.16;;;8.93;nan
10832;BME280;5469;48.574;8.768;2023-02-19T12:31:37;95705.78;;;9.03;nan
10832;BME280;5469;48.574;8.768;2023-02-19T12:37:28;95698.31;;;9.33;nan
10832;BME280;5469;48.574;8.768;2023-02-19T12:40:17;95697.78;;;9.31;nan
10832;BME280;5469;48.574;8.768;2023-02-19T12:43:04;95688.34;;;9.18;nan
10832;BME280;5469;48.574;8.768;2023-02-19T12:45:48;95691.00;;;9.57;nan
10832;BME280;5469;48.574;8.768;2023-02-19T12:48:59;95682.50;;;9.55;nan
10832;BME280;5469;48.574;8.768;2023-02-19T12:51:29;95686.94;;;9.72;nan
10832;BME280;5469;48.574;8.768;2023-02-19T12:54:11;95671.94;;;9.99;nan
10832;BME280;5469;48.574;8.768;2023-02-19T12:56:49;95662.28;;;10.15;nan
10832;BME280;5469;48.574;8.768;2023-02-19T12:59:30;95677.09;;;9.89;nan
10832;BME280;5469;48.574;8.768;2023-02-19T13:02:15;95667.97;;;9.80;nan
10832;BME280;5469;48.574;8.768;2023-02-19T13:04:57;95664.88;;;10.32;nan
10832;BME280;5469;48.574;8.768;2023-02-19T13:07:39;95657.19;;;10.09;nan
10832;BME280;5469;48.574;8.768;2023-02-19T13:10:24;95674.03;;;10.24;nan
10832;BME280;5469;48.574;8.768;2023-02-19T13:13:05;95665.53;;;10.44;nan
10832;BME280;5469;48.574;8.768;2023-02-19T13:15:41;95653.28;;;10.38;nan
10832;BME280;5469;48.574;8.768;2023-02-19T13:18:23;95664.75;;;10.22;nan
10832;BME280;5469;48.574;8.768;2023-02-19T13:21:00;95654.13;;;10.22;nan
10832;BME280;5469;48.574;8.768;2023-02-19T13:23:37;95650.47;;;10.23;nan
10832;BME280;5469;48.574;8.768;2023-02-19T13:26:50;95658.13;;;10.24;nan
10832;BME280;5469;48.574;8.768;2023-02-19T13:29:46;95646.13;;;10.17;nan
10832;BME280;5469;48.574;8.768;2023-02-19T13:32:43;95650.19;;;10.24;nan
10832;BME280;5469;48.574;8.768;2023-02-19T13:38:23;95662.53;;;10.14;nan
10832;BME280;5469;48.574;8.768;2023-02-19T13:41:00;95666.19;;;10.07;nan
10832;BME280;5469;48.574;8.768;2023-02-19T13:43:37;95659.69;;;10.42;nan
10832;BME280;5469;48.574;8.768;2023-02-19T13:46:18;95667.03;;;10.13;nan
10832;BME280;5469;48.574;8.768;2023-02-19T13:49:23;95678.47;;;10.19;nan
10832;BME280;5469;48.574;8.768;2023-02-19T13:52:01;95684.34;;;9.77;nan
10832;BME280;5469;48.574;8.768;2023-02-19T13:54:37;95674.13;;;9.63;nan
10832;BME280;5469;48.574;8.768;2023-02-19T13:57:24;95674.13;;;9.63;nan
10832;BME280;5469;48.574;8.768;2023-02-19T14:00:01;95675.34;;;9.34;nan
10832;BME280;5469;48.574;8.768;2023-02-19T14:02:37;95669.75;;;9.74;nan
10832;BME280;5469;48.574;8.768;2023-02-19T14:05:13;95672.59;;;9.68;nan
10832;BME280;5469;48.574;8.768;2023-02-19T14:08:10;95665.13;;;9.65;nan
10832;BME280;5469;48.574;8.768;2023-02-19T14:10:54;95669.41;;;9.66;nan
10832;BME280;5469;48.574;8.768;2023-02-19T14:13:58;95670.22;;;9.49;nan
10832;BME280;5469;48.574;8.768;2023-02-19T14:16:50;95652.75;;;9.48;nan
10832;BME280;5469;48.574;8.768;2023-02-19T14:19:50;95662.22;;;9.44;nan
10832;BME280;5469;48.574;8.768;2023-02-19T14:22:59;95668.69;;;9.53;nan
10832;BME280;5469;48.574;8.768;2023-02-19T14:25:40;95665.81;;;9.55;nan
10832;BME280;5469;48.574;8.768;2023-02-19T14:28:30;95671.97;;;9.22;nan
10832;BME280;5469;48.574;8.768;2023-02-19T14:31:16;95667.44;;;9.39;nan
10832;BME280;5469;48.574;8.768;2023-02-19T14:33:55;95667.19;;;9.18;nan
10832;BME280;5469;48.574;8.768;2023-02-19T14:36:55;95682.06;;;9.25;nan
10832;BME280;5469;48.574;8.768;2023-02-19T14:39:34;95678.88;;;8.89;nan
10832;BME280;5469;48.574;8.768;2023-02-19T14:42:19;95683.19;;;9.29;nan
10832;BME280;5469;48.574;8.768;2023-02-19T14:44:59;95676.66;;;8.98;nan
10832;BME280;5469;48.574;8.768;2023-02-19T14:47:37;95677.75;;;8.85;nan
10832;BME280;5469;48.574;8.768;2023-02-19T14:50:16;95684.78;;;8.62;nan
10832;BME280;5469;48.574;8.768;2023-02-19T14:52:55;95695.53;;;8.72;nan
10832;BME280;5469;48.574;8.768;2023-02-19T14:55:34;95698.97;;;9.07;nan
10832;BME280;5469;48.574;8.768;2023-02-19T14:58:15;95688.16;;;8.91;nan
10832;BME280;5469;48.574;8.768;2023-02-19T15:00:52;95683.22;;;8.95;nan
10832;BME280;5469;48.574;8.768;2023-02-19T15:03:29;95676.78;;;8.91;nan
10832;BME280;5469;48.574;8.768;2023-02-19T15:06:07;95681.59;;;8.94;nan
10832;BME280;5469;48.574;8.768;2023-02-19T15:08:48;95687.44;;;8.96;nan
10832;BME280;5469;48.574;8.768;2023-02-19T15:11:26;95685.75;;;9.07;nan
10832;BME280;5469;48.574;8.768;2023-02-19T15:14:05;95693.47;;;8.74;nan
10832;BME280;5469;48.574;8.768;2023-02-19T15:16:42;95689.84;;;9.14;nan